Weather observations for the past three days for
Avalon Catalina Airport
Metric (Imperial)
Date Time (pdt) Wind (kph) Vis. (km) Weather Sky Cond. Temperature (ºC) Relative Humidity Wind Chill (°C) Heat Index (°C) Pressure Precipitation (cm)
Air Dwpt 6 hour altimeter (cm) sea level (mb) 1 hr 3 hr 6 hr
Max. Min.
02 11:51 NE 13 16.09 Fair CLR 20.6 15.6 73% 76.35 1016.2
02 10:51 Vrbl 11 16.09 Fair CLR 20.6 15 21.1 13.9 70% 76.35 1016.4
02 09:51 Calm 16.09 Fair CLR 18.3 13.9 76% 76.33 1016.1
02 08:51 SE 7 16.09 Fair CLR 17.8 13.9 78% 76.3 1015.9
02 07:51 SW 11 12.87 Fair CLR 15 13.3 90% 76.3 1016.0
02 06:51 S 15 11.27 Fair CLR 13.9 13.3 96% 76.28 1015.6
02 05:51 SW 11 11.27 Fair CLR 13.9 13.3 96% 76.25 1015.4
02 04:51 W 11 12.87 Fair CLR 13.9 13.3 15 13.9 96% 76.25 1015.1
02 03:51 W 9 12.87 Fair CLR 14.4 13.3 93% 76.25 1015.2
02 02:51 W 11 16.09 Fair CLR 14.4 12.8 90% 76.28 1015.2
02 01:51 SW 13 16.09 Fair CLR 14.4 12.8 90% 76.3 1015.5
02 00:51 W 26 16.09 Fair CLR 15 13.3 90% 76.28 1015.2
01 23:51 SW 24 16.09 Fair CLR 15 13.3 90% 76.28 1015.0
01 22:51 W 24 16.09 Fair CLR 15 12.8 18.9 15 87% 76.25 1015.0
01 21:51 W 26 16.09 Fair CLR 15.6 12.2 80% 76.25 1015.1
01 20:51 W 26 16.09 Fair CLR 15.6 12.8 84% 76.2 1014.6
01 19:51 SW 24 16.09 Fair CLR 15.6 13.3 86% 76.17 1014.3
01 18:51 SW 20 14.48 Fair CLR 16.7 13.9 84% 76.15 1014.2
01 17:51 SW 24 16.09 Fair CLR 17.2 13.3 78% 76.17 1014.5
01 16:51 SW 22 16.09 Fair CLR 18.9 13.3 21.7 18.3 70% 76.2 1014.5
01 15:51 W 22 16.09 Fair CLR 20 13.3 65% 76.23 1014.7
01 14:51 SW 19 16.09 Fair CLR 20.6 13.9 66% 76.25 1015.0
01 13:51 SW 19 16.09 Fair CLR 20.6 13.9 66% 76.28 1015.3
01 12:51 SW 13 16.09 Fair CLR 21.1 13.9 64% 76.33 1015.7
01 11:51 W 15 16.09 Fair CLR 21.7 13.9 61% 76.33 1015.9
01 10:51 Calm 16.09 Fair CLR 20 13.9 20.6 13.9 68% 76.33 1015.9
01 09:51 SW 7 16.09 Fair CLR 18.3 13.9 76% 76.3 1015.7
01 08:51 S 7 12.87 Fair CLR 16.7 13.9 84% 76.28 1015.6
01 07:51 SW 7 14.48 Fair CLR 15.6 13.9 90% 76.25 1015.2
01 06:51 SW 7 4.02 Fog/Mist OVC002 14.4 13.9 97% 76.23 1014.7
01 05:51 SW 11 8.05 Fog/Mist OVC002 13.9 13.9 100% 76.17 1014.2
01 04:51 SW 9 0.80 Fog VV001 14.4 13.9 15 14.4 97% 76.17 1013.9
01 03:51 SW 13 4.02 Fog/Mist OVC001 14.4 14.4 100% 76.15 1013.4
01 02:51 SW 13 6.44 Fog/Mist OVC001 15 14.4 96% 76.2 1013.9
01 01:51 SW 11 4.83 Fog/Mist OVC001 15 14.4 96% 76.2 1013.9
01 00:51 SW 17 2.82 Fog/Mist OVC001 15 14.4 96% 76.2 1014.1
31 23:51 SW 15 2.41 Fog/Mist OVC001 15 14.4 96% 76.2 1013.9
31 22:51 SW 11 1.61 Fog/Mist VV001 15 15 20.6 15 100% 76.17 1013.8
31 21:51 SW 13 2.82 Fog/Mist BKN001 15 14.4 96% 76.17 1013.7
31 20:51 SW 17 2.41 Fog/Mist OVC001 15.6 15 96% 76.12 1013.3
31 18:51 W 17 14.48 Fair CLR 18.3 14.4 78% 76.07 1012.5
31 17:51 W 22 16.09 Fair CLR 18.9 15 78% 76.07 1012.5
31 16:51 W 20 14.48 Fair CLR 20 15.6 23.3 20 76% 76.12 1012.8
31 15:51 SW 13 16.09 Fair CLR 23.3 15 60% 76.12 1012.7
31 13:51 W 15 16.09 Fair CLR 22.2 15.6 66% 76.2 1013.5
31 12:51 SW 13 14.48 Fair CLR 22.2 15.6 66% 76.2 1013.6
31 11:51 SW 13 14.48 Fair CLR 22.2 16.1 68% 76.23 1013.7
31 10:51 Vrbl 9 12.87 Fair CLR 21.7 16.1 22.8 16.7 71% 76.2 1013.6
31 09:51 Vrbl 6 12.87 Fair CLR 21.1 16.1 73% 76.17 1013.6
31 08:51 SE 7 12.87 Fair CLR 20 16.7 81% 76.15 1013.4
31 07:51 SE 6 6.44 Fog/Mist BKN001 17.2 17.2 100% 76.12 1013.2
31 06:51 S 7 2.41 Fog/Mist OVC001 17.2 16.7 97% 76.07 1012.3
31 05:51 SE 7 0.80 Fog VV001 17.2 17.2 100% 76.05 1011.8
31 04:51 SE 6 0.80 Fog VV001 17.2 16.7 20.6 16.7 97% 76.05 1011.4
31 03:51 SE 9 3.22 Fog/Mist OVC002 17.2 16.7 97% 76.05 1011.5
31 02:51 Calm 14.48 Fair CLR 16.7 14.4 86% 76.05 1011.6
31 01:51 S 6 14.48 Fair CLR 18.3 15.6 84% 76.05 1011.5
31 00:51 Calm 16.09 Fair CLR 19.4 12.8 66% 76.07 1011.7
30 23:51 Calm 16.09 Fair CLR 20.6 10 51% 76.07 1011.3
30 22:51 Calm 16.09 Fair CLR 20.6 10.6 25 16.7 53% 76.07 1011.4
30 21:51 Calm 9.66 Fog/Mist CLR 17.2 16.1 93% 76.07 1011.9
30 20:51 Vrbl 6 8.05 Fog/Mist CLR 17.8 16.7 93% 76.05 1011.2
30 19:51 Calm 9.66 Fog/Mist CLR 17.8 16.1 90% 75.97 1010.9
30 18:51 SW 15 9.66 Fog/Mist CLR 18.9 16.7 87% 75.97 1011.0
30 17:51 W 19 9.66 Fair with Haze CLR 21.1 17.2 79% 75.97 1010.6
30 16:51 W 11 16.09 Fair CLR 25 13.9 27.2 24.4 50% 26 76 1010.2
30 15:51 W 13 14.48 Fair CLR 25 16.1 58% 26 76.02 1010.5
30 14:51 SW 13 12.87 Fair CLR 25 16.7 60% 26 76.05 1010.9
30 13:51 W 17 12.87 Fair CLR 25 17.8 64% 26 76.1 1011.5
30 12:51 W 11 12.87 Fair CLR 25 18.3 66% 26 76.12 1011.7
Date Time (pdt) Wind (kph) Vis. (km) Weather Sky Cond. Air Dwpt Max. Min. Relative Humidity Wind Chill (°C) Heat Index (°C) altimeter (cm) sea level (mb) 1 hr 3 hr 6 hr
6 hour
Temperature (ºC) Pressure Precipitation (cm)